ITY1872 LIMC-LICJ
Flight info
| Callsign | ITY1872 |
|---|---|
| Flight time | N/A |
| Altitude | 37000 |
| Route | ROBAS DCT EKDIR DCT LURON |
| Aircraft | A21N/M-SDE2E3FGHIRWXY/LB1 |
Departure
| Time | 2026-05-07 16:44 |
|---|---|
| Airport | Milan Malpensa International Airport (LIMC) |
Arrival
| Time | N/A |
|---|---|
| Airport | Falcone–Borsellino Airport (LICJ) |
| Time | Latitude | Longitude | Altitude | Speed | Heading |
|---|---|---|---|---|---|
| 2026-05-07 16:19 | 45.63026 | 8.71541 | 764 ft | 0 kts | 349° |
| 2026-05-07 16:27 | 45.63005 | 8.71547 | 764 ft | 4 kts | 349° |
| 2026-05-07 16:27 | 45.62978 | 8.71554 | 764 ft | 4 kts | 349° |
| 2026-05-07 16:27 | 45.62956 | 8.71558 | 764 ft | 4 kts | 13° |
| 2026-05-07 16:28 | 45.62939 | 8.71539 | 764 ft | 4 kts | 68° |
| 2026-05-07 16:28 | 45.62933 | 8.71513 | 764 ft | 1 kts | 78° |
| 2026-05-07 16:28 | 45.62933 | 8.71509 | 764 ft | 0 kts | 78° |
| 2026-05-07 16:30 | 45.62934 | 8.71516 | 764 ft | 2 kts | 78° |
| 2026-05-07 16:30 | 45.62939 | 8.71550 | 764 ft | 5 kts | 78° |
| 2026-05-07 16:31 | 45.62946 | 8.71598 | 764 ft | 6 kts | 78° |
| 2026-05-07 16:31 | 45.62955 | 8.71660 | 764 ft | 7 kts | 78° |
| 2026-05-07 16:31 | 45.62958 | 8.71680 | 764 ft | 0 kts | 78° |
| 2026-05-07 16:31 | 45.62958 | 8.71682 | 764 ft | 1 kts | 78° |
| 2026-05-07 16:32 | 45.62954 | 8.71722 | 764 ft | 12 kts | 123° |
| 2026-05-07 16:32 | 45.62872 | 8.71761 | 764 ft | 7 kts | 168° |
| 2026-05-07 16:32 | 45.62838 | 8.71773 | 764 ft | 5 kts | 165° |
| 2026-05-07 16:32 | 45.62798 | 8.71789 | 764 ft | 7 kts | 165° |
| 2026-05-07 16:33 | 45.62743 | 8.71808 | 764 ft | 9 kts | 167° |
| 2026-05-07 16:33 | 45.62673 | 8.71830 | 764 ft | 11 kts | 167° |
| 2026-05-07 16:33 | 45.62591 | 8.71854 | 764 ft | 12 kts | 169° |
| 2026-05-07 16:33 | 45.62501 | 8.71877 | 765 ft | 14 kts | 169° |
| 2026-05-07 16:34 | 45.62397 | 8.71904 | 765 ft | 16 kts | 169° |
| 2026-05-07 16:34 | 45.62288 | 8.71933 | 765 ft | 16 kts | 168° |
| 2026-05-07 16:34 | 45.62170 | 8.71967 | 765 ft | 18 kts | 168° |
| 2026-05-07 16:34 | 45.62057 | 8.72001 | 765 ft | 17 kts | 168° |
| 2026-05-07 16:35 | 45.61935 | 8.72037 | 765 ft | 19 kts | 168° |
| 2026-05-07 16:35 | 45.61801 | 8.72076 | 765 ft | 20 kts | 168° |
| 2026-05-07 16:35 | 45.61658 | 8.72116 | 765 ft | 22 kts | 171° |
| 2026-05-07 16:35 | 45.61513 | 8.72150 | 765 ft | 15 kts | 169° |
| 2026-05-07 16:36 | 45.61406 | 8.72177 | 765 ft | 17 kts | 169° |
| 2026-05-07 16:36 | 45.61287 | 8.72208 | 765 ft | 18 kts | 170° |
| 2026-05-07 16:36 | 45.61157 | 8.72241 | 765 ft | 20 kts | 170° |
| 2026-05-07 16:36 | 45.61022 | 8.72283 | 765 ft | 16 kts | 167° |
| 2026-05-07 16:37 | 45.60902 | 8.72323 | 765 ft | 21 kts | 167° |
| 2026-05-07 16:37 | 45.60737 | 8.72366 | 765 ft | 25 kts | 170° |
| 2026-05-07 16:37 | 45.60638 | 8.72494 | 765 ft | 22 kts | 95° |
| 2026-05-07 16:37 | 45.60625 | 8.72714 | 765 ft | 23 kts | 95° |
| 2026-05-07 16:38 | 45.60610 | 8.72949 | 765 ft | 24 kts | 95° |
| 2026-05-07 16:38 | 45.60596 | 8.73186 | 765 ft | 23 kts | 86° |
| 2026-05-07 16:38 | 45.60717 | 8.73320 | 765 ft | 24 kts | 22° |
| 2026-05-07 16:38 | 45.60871 | 8.73406 | 765 ft | 8 kts | 5° |
| 2026-05-07 16:39 | 45.60933 | 8.73399 | 765 ft | 10 kts | 350° |
| 2026-05-07 16:39 | 45.61016 | 8.73377 | 765 ft | 14 kts | 349° |
| 2026-05-07 16:39 | 45.61121 | 8.73345 | 765 ft | 17 kts | 347° |
| 2026-05-07 16:39 | 45.61237 | 8.73305 | 765 ft | 17 kts | 346° |
| 2026-05-07 16:40 | 45.61365 | 8.73275 | 765 ft | 20 kts | 352° |
| 2026-05-07 16:40 | 45.61512 | 8.73242 | 765 ft | 22 kts | 348° |
| 2026-05-07 16:40 | 45.61622 | 8.73269 | 765 ft | 18 kts | 74° |
| 2026-05-07 16:40 | 45.61632 | 8.73381 | 765 ft | 0 kts | 85° |
| 2026-05-07 16:41 | 45.61633 | 8.73399 | 765 ft | 4 kts | 88° |
| 2026-05-07 16:41 | 45.61607 | 8.73489 | 765 ft | 18 kts | 123° |
| 2026-05-07 16:41 | 45.61589 | 8.73649 | 765 ft | 17 kts | 77° |
| 2026-05-07 16:42 | 45.61657 | 8.73729 | 764 ft | 11 kts | 342° |
| 2026-05-07 16:42 | 45.61670 | 8.73724 | 764 ft | 0 kts | 348° |
| 2026-05-07 16:42 | 45.61672 | 8.73724 | 764 ft | 1 kts | 348° |
| 2026-05-07 16:43 | 45.61867 | 8.73665 | 764 ft | 64 kts | 347° |
| 2026-05-07 16:43 | 45.62498 | 8.73496 | 766 ft | 121 kts | 349° |
| 2026-05-07 16:43 | 45.63145 | 8.73310 | 763 ft | 160 kts | 347° |
| 2026-05-07 16:43 | 45.64425 | 8.72950 | 993 ft | 206 kts | 349° |
| 2026-05-07 16:44 | 45.65882 | 8.72664 | 1914 ft | 223 kts | 1° |
| 2026-05-07 16:44 | 45.67468 | 8.72893 | 2874 ft | 235 kts | 3° |
| 2026-05-07 16:44 | 45.69140 | 8.72843 | 3901 ft | 246 kts | 356° |
| 2026-05-07 16:44 | 45.70894 | 8.72704 | 5038 ft | 258 kts | 357° |
| 2026-05-07 16:45 | 45.72708 | 8.72318 | 6236 ft | 272 kts | 338° |
| 2026-05-07 16:45 | 45.74358 | 8.70903 | 7424 ft | 284 kts | 320° |
| 2026-05-07 16:45 | 45.75606 | 8.68642 | 8673 ft | 299 kts | 294° |
| 2026-05-07 16:45 | 45.76036 | 8.65667 | 9948 ft | 317 kts | 268° |
| 2026-05-07 16:46 | 45.75524 | 8.62507 | 11096 ft | 338 kts | 245° |
| 2026-05-07 16:46 | 45.74127 | 8.59687 | 12337 ft | 360 kts | 225° |
| 2026-05-07 16:46 | 45.72023 | 8.57557 | 13554 ft | 385 kts | 208° |
| 2026-05-07 16:46 | 45.69485 | 8.55998 | 14640 ft | 408 kts | 204° |
| 2026-05-07 16:47 | 45.66832 | 8.54288 | 15687 ft | 429 kts | 207° |
| 2026-05-07 16:47 | 45.64000 | 8.52705 | 16739 ft | 439 kts | 198° |
| 2026-05-07 16:47 | 45.61021 | 8.52026 | 17836 ft | 424 kts | 189° |
| 2026-05-07 16:47 | 45.58050 | 8.51560 | 18848 ft | 443 kts | 184° |
| 2026-05-07 16:48 | 45.54897 | 8.52060 | 19854 ft | 469 kts | 169° |
| 2026-05-07 16:48 | 45.51783 | 8.53520 | 21096 ft | 472 kts | 158° |
| 2026-05-07 16:48 | 45.48835 | 8.55629 | 22116 ft | 477 kts | 155° |
| 2026-05-07 16:48 | 45.45889 | 8.57868 | 23148 ft | 485 kts | 154° |
| 2026-05-07 16:49 | 45.42894 | 8.60209 | 24177 ft | 500 kts | 154° |
| 2026-05-07 16:49 | 45.39819 | 8.62672 | 25442 ft | 511 kts | 154° |
| 2026-05-07 16:49 | 45.36765 | 8.65126 | 26753 ft | 494 kts | 154° |
| 2026-05-07 16:49 | 45.33830 | 8.67503 | 28131 ft | 483 kts | 155° |
| 2026-05-07 16:50 | 45.30893 | 8.69884 | 29591 ft | 489 kts | 155° |
| 2026-05-07 16:50 | 45.27932 | 8.72282 | 30939 ft | 491 kts | 156° |
| 2026-05-07 16:50 | 45.27282 | 8.72808 | 31226 ft | 492 kts | 156° |
| 2026-05-07 16:51 | 45.25215 | 8.74480 | 32145 ft | 493 kts | 156° |
| 2026-05-07 16:51 | 45.22279 | 8.76865 | 33010 ft | 484 kts | 156° |
| 2026-05-07 16:52 | 45.19324 | 8.79259 | 33245 ft | 494 kts | 156° |
| 2026-05-07 16:52 | 45.16329 | 8.81678 | 33536 ft | 496 kts | 156° |
| 2026-05-07 16:52 | 45.13331 | 8.84101 | 33822 ft | 497 kts | 156° |
| 2026-05-07 16:52 | 45.10325 | 8.86542 | 34087 ft | 499 kts | 156° |
| 2026-05-07 16:53 | 45.07314 | 8.89011 | 34136 ft | 505 kts | 156° |
| 2026-05-07 16:53 | 45.01310 | 8.94105 | 35894 ft | 468 kts | 154° |
| 2026-05-07 16:53 | 44.98604 | 8.96471 | 37116 ft | 456 kts | 155° |
| 2026-05-07 16:54 | 44.95800 | 8.98763 | 37084 ft | 472 kts | 161° |
| 2026-05-07 16:54 | 44.89555 | 9.01754 | 37003 ft | 481 kts | 168° |